createdAt,value
2022-12-03T00:00:12.885Z,95.30
2022-12-03T00:02:41.762Z,95.10
2022-12-03T00:05:09.629Z,94.80
2022-12-03T00:07:37.670Z,93.70
2022-12-03T00:10:20.163Z,93.90
2022-12-03T00:12:56.853Z,94.40
2022-12-03T00:15:24.128Z,93.40
2022-12-03T00:17:51.569Z,93.20
2022-12-03T00:20:21.615Z,93.30
2022-12-03T00:22:49.172Z,94.20
2022-12-03T00:25:19.575Z,94.70
2022-12-03T00:27:46.823Z,94.10
2022-12-03T00:30:15.246Z,94.30
2022-12-03T00:32:52.424Z,94.70
2022-12-03T00:35:20.388Z,94.90
2022-12-03T00:37:47.497Z,95.00
2022-12-03T00:40:14.680Z,95.40
2022-12-03T00:42:41.587Z,95.20
2022-12-03T00:45:09.381Z,95.20
2022-12-03T00:47:36.336Z,95.30
2022-12-03T00:50:03.992Z,95.40
2022-12-03T00:52:31.576Z,95.50
2022-12-03T00:54:58.687Z,95.80
2022-12-03T00:57:25.618Z,96.20
2022-12-03T00:59:52.673Z,95.80
2022-12-03T01:02:19.712Z,95.40
2022-12-03T01:04:46.897Z,95.20
2022-12-03T01:07:14.770Z,94.70
2022-12-03T01:09:41.854Z,95.10
2022-12-03T01:12:09.565Z,95.70
2022-12-03T01:14:37.140Z,94.30
2022-12-03T01:17:04.564Z,94.70
2022-12-03T01:19:31.744Z,94.80
2022-12-03T01:21:58.786Z,95.00
2022-12-03T01:24:25.825Z,95.10
2022-12-03T01:26:53.553Z,95.00
2022-12-03T01:29:20.651Z,94.50
2022-12-03T01:32:09.636Z,94.70
2022-12-03T01:34:37.904Z,94.40
2022-12-03T01:37:05.358Z,94.10
2022-12-03T01:39:32.451Z,93.90
2022-12-03T01:41:59.952Z,94.10
2022-12-03T01:44:31.060Z,93.90
2022-12-03T01:47:01.687Z,93.90
2022-12-03T01:49:39.419Z,93.40
2022-12-03T01:52:11.255Z,92.70
2022-12-03T01:54:42.536Z,92.60
2022-12-03T01:57:46.185Z,92.20
2022-12-03T02:00:18.604Z,91.80
2022-12-03T02:03:00.458Z,91.90
2022-12-03T02:05:30.510Z,92.00
2022-12-03T02:07:58.356Z,92.00
2022-12-03T02:10:36.274Z,91.60
2022-12-03T02:13:10.216Z,92.00
2022-12-03T02:15:39.346Z,91.70
2022-12-03T02:18:09.128Z,92.70
2022-12-03T02:20:47.119Z,92.90
2022-12-03T02:23:37.170Z,92.70
2022-12-03T02:26:04.527Z,91.60
2022-12-03T02:28:32.323Z,91.30
2022-12-03T02:30:59.699Z,92.00
2022-12-03T02:33:28.598Z,92.60
2022-12-03T02:36:00.433Z,91.80
2022-12-03T02:38:30.871Z,91.90
2022-12-03T02:41:02.884Z,92.30
2022-12-03T02:43:30.264Z,93.20
2022-12-03T02:46:01.570Z,92.90
2022-12-03T02:48:39.192Z,92.70
2022-12-03T02:51:10.266Z,93.60
2022-12-03T02:53:42.697Z,93.20
2022-12-03T02:56:14.378Z,93.80
2022-12-03T02:58:43.748Z,94.00
2022-12-03T03:01:12.130Z,93.50
2022-12-03T03:03:39.617Z,93.60
2022-12-03T03:06:08.278Z,92.60
2022-12-03T03:08:37.199Z,92.00
2022-12-03T03:11:04.301Z,91.50
2022-12-03T03:13:33.758Z,90.60
2022-12-03T03:16:02.889Z,91.10
2022-12-03T03:18:30.047Z,91.20
2022-12-03T03:20:57.048Z,91.40
2022-12-03T03:23:25.002Z,91.00
2022-12-03T03:26:18.138Z,91.20
2022-12-03T03:28:51.316Z,91.70
2022-12-03T03:31:23.255Z,91.30
2022-12-03T03:33:51.150Z,90.60
2022-12-03T03:36:19.925Z,90.20
2022-12-03T03:38:47.898Z,90.90
2022-12-03T03:41:15.809Z,91.30
2022-12-03T03:43:44.570Z,91.60
2022-12-03T03:46:12.067Z,90.60
2022-12-03T03:48:41.130Z,90.60
2022-12-03T03:51:09.708Z,91.20
2022-12-03T03:53:40.435Z,92.00
2022-12-03T03:56:08.242Z,92.00
2022-12-03T03:58:35.581Z,91.30
2022-12-03T04:01:03.305Z,91.40
2022-12-03T04:03:30.381Z,91.90
2022-12-03T04:05:57.340Z,91.80
2022-12-03T04:08:24.269Z,92.30
2022-12-03T04:11:09.797Z,92.40
2022-12-03T04:13:36.834Z,92.10
2022-12-03T04:16:04.032Z,92.20
2022-12-03T04:18:42.889Z,92.50
2022-12-03T04:21:34.506Z,92.90
2022-12-03T04:24:04.927Z,92.50
2022-12-03T04:26:50.542Z,92.60
2022-12-03T04:29:17.669Z,92.70
2022-12-03T04:32:03.714Z,93.50
2022-12-03T04:34:49.370Z,93.60
2022-12-03T04:37:16.810Z,93.30
2022-12-03T04:39:43.879Z,93.30
2022-12-03T04:42:10.842Z,93.20
2022-12-03T04:44:38.063Z,94.40
2022-12-03T04:47:10.879Z,94.30
2022-12-03T04:49:46.489Z,94.10
2022-12-03T04:52:15.685Z,94.50
2022-12-03T04:54:43.361Z,94.50
2022-12-03T04:57:10.966Z,94.70
2022-12-03T04:59:38.487Z,94.60
2022-12-03T05:02:06.771Z,94.70
2022-12-03T05:04:34.517Z,95.50
2022-12-03T05:07:01.974Z,96.20
2022-12-03T05:09:28.961Z,96.30
2022-12-03T05:11:55.901Z,96.60
2022-12-03T05:14:22.866Z,97.30
2022-12-03T05:16:52.281Z,97.10
2022-12-03T05:19:19.202Z,97.20
2022-12-03T05:21:46.124Z,97.80
2022-12-03T05:24:13.070Z,98.20
2022-12-03T05:26:39.986Z,97.20
2022-12-03T05:29:07.177Z,98.20
2022-12-03T05:31:34.228Z,98.00
2022-12-03T05:34:01.370Z,97.20
2022-12-03T05:36:28.379Z,96.80
2022-12-03T05:38:55.286Z,96.30
2022-12-03T05:41:40.451Z,96.20
2022-12-03T05:44:07.355Z,95.70
2022-12-03T05:46:34.332Z,96.30
2022-12-03T05:49:01.486Z,96.30
2022-12-03T05:51:28.370Z,97.20
2022-12-03T05:53:55.359Z,97.20
2022-12-03T05:56:22.342Z,98.20
2022-12-03T05:58:49.257Z,98.20
2022-12-03T06:01:16.312Z,98.20
2022-12-03T06:03:43.301Z,98.20
2022-12-03T06:06:10.613Z,98.60
2022-12-03T06:08:37.659Z,98.80
2022-12-03T06:11:04.720Z,98.20
2022-12-03T06:13:31.944Z,98.00
2022-12-03T06:15:59.292Z,97.80
2022-12-03T06:18:26.310Z,97.20
2022-12-03T06:20:53.422Z,97.40
2022-12-03T06:23:20.345Z,97.00
2022-12-03T06:25:47.404Z,97.60
2022-12-03T06:28:14.342Z,97.20
2022-12-03T06:30:41.584Z,97.50
2022-12-03T06:33:10.484Z,97.90
2022-12-03T06:35:37.645Z,97.30
2022-12-03T06:38:05.005Z,97.30
2022-12-03T06:40:32.146Z,96.80
2022-12-03T06:42:59.216Z,96.80
2022-12-03T06:45:26.063Z,96.90
2022-12-03T06:47:52.918Z,97.00
2022-12-03T06:50:19.817Z,96.40
2022-12-03T06:52:46.789Z,96.90
2022-12-03T06:55:13.828Z,96.60
2022-12-03T06:57:40.872Z,96.70
2022-12-03T07:00:09.192Z,97.50
2022-12-03T07:02:36.745Z,96.60
2022-12-03T07:05:04.648Z,96.90
2022-12-03T07:07:31.726Z,97.30
2022-12-03T07:09:59.171Z,97.50
2022-12-03T07:12:26.053Z,97.40
2022-12-03T07:14:53.387Z,97.20
2022-12-03T07:17:20.704Z,96.50
2022-12-03T07:19:47.652Z,96.80
2022-12-03T07:22:14.577Z,96.00
2022-12-03T07:24:41.565Z,96.20
2022-12-03T07:27:08.502Z,96.10
2022-12-03T07:29:35.560Z,95.60
2022-12-03T07:32:02.641Z,95.90
2022-12-03T07:34:29.844Z,95.40
2022-12-03T07:36:56.947Z,95.00
2022-12-03T07:39:23.837Z,94.70
2022-12-03T07:41:50.832Z,95.40
2022-12-03T07:44:17.715Z,94.70
2022-12-03T07:46:44.753Z,94.90
2022-12-03T07:49:12.448Z,94.40
2022-12-03T07:51:39.391Z,94.20
2022-12-03T07:54:06.313Z,93.60
2022-12-03T07:56:33.263Z,93.90
2022-12-03T07:59:00.172Z,93.20
2022-12-03T08:01:27.206Z,93.00
2022-12-03T08:03:54.178Z,92.80
2022-12-03T08:06:21.118Z,92.40
2022-12-03T08:08:47.983Z,91.70
2022-12-03T08:11:15.641Z,91.80
2022-12-03T08:13:42.846Z,92.10
2022-12-03T08:16:17.734Z,91.90
2022-12-03T08:18:46.317Z,91.50
2022-12-03T08:21:15.521Z,90.90
2022-12-03T08:23:42.571Z,90.30
2022-12-03T08:26:28.123Z,89.50
2022-12-03T08:28:55.047Z,90.60
2022-12-03T08:31:32.934Z,90.80
2022-12-03T08:34:20.057Z,90.50
2022-12-03T08:36:49.740Z,91.30
2022-12-03T08:39:34.569Z,90.90
2022-12-03T08:42:58.158Z,90.60
2022-12-03T08:45:40.361Z,90.00
2022-12-03T08:48:44.055Z,88.50
2022-12-03T08:51:25.682Z,88.30
2022-12-03T08:54:01.890Z,88.70
2022-12-03T08:56:31.132Z,87.10
2022-12-03T08:59:18.722Z,87.20
2022-12-03T09:01:47.323Z,88.00
2022-12-03T09:04:45.331Z,87.40
2022-12-03T09:07:12.436Z,87.80
2022-12-03T09:09:39.355Z,87.20
2022-12-03T09:12:06.604Z,89.20
2022-12-03T09:14:33.526Z,87.20
2022-12-03T09:17:00.591Z,86.80
2022-12-03T09:19:31.111Z,85.80
2022-12-03T09:21:58.300Z,86.80
2022-12-03T09:24:25.285Z,86.70
2022-12-03T09:26:52.457Z,85.50
2022-12-03T09:29:19.411Z,86.60
2022-12-03T09:31:46.874Z,86.70
2022-12-03T09:34:14.278Z,86.70
2022-12-03T09:36:41.338Z,86.00
2022-12-03T09:39:08.271Z,87.60
2022-12-03T09:41:35.614Z,85.30
2022-12-03T09:44:04.502Z,86.70
2022-12-03T09:46:34.153Z,85.20
2022-12-03T09:49:02.093Z,84.70
2022-12-03T09:51:33.800Z,84.10
2022-12-03T09:54:03.048Z,85.70
2022-12-03T09:56:30.453Z,84.00
2022-12-03T09:58:57.556Z,81.80
2022-12-03T10:01:29.977Z,83.20
2022-12-03T10:03:58.500Z,83.70
2022-12-03T10:06:25.595Z,84.40
2022-12-03T10:08:57.297Z,82.40
2022-12-03T10:11:26.000Z,81.20
2022-12-03T10:13:55.317Z,82.30
2022-12-03T10:16:22.650Z,82.10
2022-12-03T10:19:01.114Z,82.40
2022-12-03T10:21:38.880Z,81.20
2022-12-03T10:24:28.949Z,78.60
2022-12-03T10:26:58.493Z,79.90
2022-12-03T10:29:34.960Z,79.60
2022-12-03T10:32:09.226Z,79.50
2022-12-03T10:34:41.840Z,80.60
2022-12-03T10:37:22.688Z,78.50
2022-12-03T10:40:24.374Z,76.20
2022-12-03T10:42:51.259Z,78.10
2022-12-03T10:45:23.013Z,76.00
2022-12-03T10:48:10.953Z,76.30
2022-12-03T10:50:38.687Z,75.00
2022-12-03T10:53:05.612Z,76.40
2022-12-03T10:55:38.576Z,74.50
2022-12-03T10:58:05.507Z,73.90
2022-12-03T11:00:32.373Z,76.50
2022-12-03T11:02:59.242Z,75.50
2022-12-03T11:05:28.496Z,74.20
2022-12-03T11:07:56.374Z,74.40
2022-12-03T11:10:23.798Z,74.60
2022-12-03T11:13:47.885Z,76.10
2022-12-03T11:16:35.164Z,73.40
2022-12-03T11:19:02.644Z,74.30
2022-12-03T11:21:32.461Z,75.10
2022-12-03T11:24:15.673Z,76.30
2022-12-03T11:27:23.026Z,75.10
2022-12-03T11:30:01.013Z,74.10
2022-12-03T11:33:20.023Z,74.50
2022-12-03T11:36:47.835Z,73.30
2022-12-03T11:39:11.850Z,72.80
2022-12-03T11:41:39.202Z,73.30
2022-12-03T11:44:31.549Z,73.60
2022-12-03T11:47:00.128Z,71.90
2022-12-03T11:49:39.541Z,72.10
2022-12-03T11:52:20.530Z,70.70
2022-12-03T11:54:52.677Z,70.50
2022-12-03T11:57:37.768Z,70.40
2022-12-03T12:00:21.292Z,70.80
2022-12-03T12:02:49.458Z,69.70
2022-12-03T12:05:29.218Z,71.80
2022-12-03T12:07:56.813Z,72.40
2022-12-03T12:10:47.244Z,72.00
2022-12-03T12:13:58.200Z,68.90
2022-12-03T12:16:53.186Z,68.90
2022-12-03T12:19:36.836Z,69.80
2022-12-03T12:22:31.837Z,71.50
2022-12-03T12:25:01.372Z,70.60
2022-12-03T12:27:45.304Z,72.70
2022-12-03T12:30:20.012Z,71.30
2022-12-03T12:32:51.547Z,76.00
2022-12-03T12:35:30.144Z,78.00
2022-12-03T12:38:18.754Z,77.40
2022-12-03T12:40:49.365Z,78.30
2022-12-03T12:43:27.590Z,76.80
2022-12-03T12:46:13.698Z,76.70
2022-12-03T12:48:45.864Z,76.00
2022-12-03T12:51:15.282Z,77.00
2022-12-03T12:53:57.816Z,75.30
2022-12-03T12:56:31.058Z,77.30
2022-12-03T12:59:15.408Z,76.50
2022-12-03T13:01:44.191Z,75.30
2022-12-03T13:04:16.725Z,76.30
2022-12-03T13:06:44.677Z,74.30
2022-12-03T13:09:26.076Z,76.20
2022-12-03T13:11:54.249Z,75.70
2022-12-03T13:14:37.156Z,76.10
2022-12-03T13:17:19.877Z,74.80
2022-12-03T13:20:03.266Z,73.80
2022-12-03T13:22:33.679Z,75.70
2022-12-03T13:25:32.633Z,75.90
2022-12-03T13:28:07.438Z,76.00
2022-12-03T13:30:34.499Z,73.40
2022-12-03T13:33:08.637Z,73.30
2022-12-03T13:35:36.620Z,74.70
2022-12-03T13:38:13.275Z,74.20
2022-12-03T13:40:41.482Z,74.90
2022-12-03T13:43:15.705Z,75.50
2022-12-03T13:45:49.340Z,76.10
2022-12-03T13:48:23.217Z,75.80
2022-12-03T13:50:51.573Z,77.60
2022-12-03T13:53:27.995Z,76.40
2022-12-03T13:56:41.083Z,76.50
2022-12-03T13:59:09.003Z,77.30
2022-12-03T14:01:36.505Z,76.70
2022-12-03T14:04:04.225Z,76.60
2022-12-03T14:06:31.426Z,76.90
2022-12-03T14:08:58.440Z,76.10
2022-12-03T14:11:44.514Z,77.70
2022-12-03T14:14:11.401Z,76.70
2022-12-03T14:16:38.346Z,76.70
2022-12-03T14:19:06.299Z,77.30
2022-12-03T14:21:33.263Z,77.90
2022-12-03T14:24:00.350Z,78.00
2022-12-03T14:26:27.320Z,78.00
2022-12-03T14:28:54.270Z,79.10
2022-12-03T14:31:21.327Z,79.90
2022-12-03T14:33:49.065Z,77.30
2022-12-03T14:36:16.174Z,77.90
2022-12-03T14:38:43.052Z,79.30
2022-12-03T14:41:31.296Z,79.30
2022-12-03T14:43:58.411Z,79.40
2022-12-03T14:46:25.391Z,80.60
2022-12-03T14:48:52.645Z,81.70
2022-12-03T14:51:19.602Z,80.90
2022-12-03T14:53:46.765Z,78.60
2022-12-03T14:56:13.663Z,79.50
2022-12-03T14:58:40.559Z,78.70
2022-12-03T15:01:07.629Z,80.20
2022-12-03T15:03:34.611Z,80.40
2022-12-03T15:06:01.920Z,79.30
2022-12-03T15:08:28.843Z,78.10
2022-12-03T15:10:55.975Z,76.00
2022-12-03T15:13:23.229Z,77.90
2022-12-03T15:15:50.149Z,79.20
2022-12-03T15:18:17.135Z,79.00
2022-12-03T15:20:44.222Z,79.60
2022-12-03T15:23:14.305Z,80.60
2022-12-03T15:25:42.181Z,79.70
2022-12-03T15:28:09.115Z,79.40
2022-12-03T15:30:36.378Z,79.30
2022-12-03T15:33:03.851Z,79.00
2022-12-03T15:35:31.489Z,79.00
2022-12-03T15:37:58.909Z,79.00
2022-12-03T15:40:26.351Z,79.20
2022-12-03T15:42:53.426Z,81.30
2022-12-03T15:45:20.321Z,80.00
2022-12-03T15:47:47.246Z,81.20
2022-12-03T15:50:14.394Z,80.30
2022-12-03T15:52:41.518Z,79.80
2022-12-03T15:55:09.067Z,78.90
2022-12-03T15:57:35.959Z,80.20
2022-12-03T16:00:03.322Z,81.10
2022-12-03T16:02:33.940Z,80.30
2022-12-03T16:05:05.082Z,81.30
2022-12-03T16:07:33.015Z,79.60
2022-12-03T16:10:00.548Z,80.60
2022-12-03T16:12:27.869Z,79.70
2022-12-03T16:14:54.728Z,80.10
2022-12-03T16:17:21.633Z,79.00
2022-12-03T16:19:49.132Z,78.90
2022-12-03T16:22:16.721Z,80.10
2022-12-03T16:24:43.676Z,82.20
2022-12-03T16:27:10.741Z,80.50
2022-12-03T16:29:37.660Z,80.40
2022-12-03T16:32:05.433Z,82.20
2022-12-03T16:34:32.303Z,80.80
2022-12-03T16:36:59.202Z,82.20
2022-12-03T16:39:26.104Z,82.20
2022-12-03T16:41:53.118Z,82.70
2022-12-03T16:44:31.489Z,81.70
2022-12-03T16:47:02.023Z,83.00
2022-12-03T16:49:28.950Z,82.20
2022-12-03T16:51:58.352Z,82.90
2022-12-03T16:54:25.397Z,82.80
2022-12-03T16:56:52.272Z,81.60
2022-12-03T16:59:19.149Z,82.20
2022-12-03T17:01:46.020Z,82.10
2022-12-03T17:04:13.106Z,83.40
2022-12-03T17:06:41.353Z,83.20
2022-12-03T17:09:08.218Z,82.50
2022-12-03T17:11:35.055Z,82.90
2022-12-03T17:14:02.006Z,83.20
2022-12-03T17:16:29.332Z,83.70
2022-12-03T17:18:56.311Z,83.20
2022-12-03T17:21:23.306Z,83.80
2022-12-03T17:23:51.121Z,84.60
2022-12-03T17:26:18.986Z,83.30
2022-12-03T17:28:46.442Z,82.80
2022-12-03T17:31:14.331Z,84.50
2022-12-03T17:33:41.404Z,84.30
2022-12-03T17:36:08.734Z,83.20
2022-12-03T17:38:38.989Z,84.50
2022-12-03T17:41:07.476Z,83.10
2022-12-03T17:43:34.618Z,84.40
2022-12-03T17:46:01.804Z,83.00
2022-12-03T17:48:31.750Z,82.10
2022-12-03T17:50:59.055Z,84.10
2022-12-03T17:53:26.025Z,83.70
2022-12-03T17:55:53.002Z,82.20
2022-12-03T17:58:19.937Z,82.00
2022-12-03T18:00:46.866Z,83.10
2022-12-03T18:03:13.854Z,82.90
2022-12-03T18:05:41.736Z,82.20
2022-12-03T18:08:08.743Z,82.60
2022-12-03T18:10:35.829Z,82.00
2022-12-03T18:13:02.972Z,83.30
2022-12-03T18:15:30.918Z,83.80
2022-12-03T18:17:57.819Z,82.60
2022-12-03T18:20:24.777Z,84.30
2022-12-03T18:22:51.904Z,85.40
2022-12-03T18:25:19.432Z,85.10
2022-12-03T18:27:47.396Z,85.20
2022-12-03T18:30:15.161Z,85.30
2022-12-03T18:32:42.845Z,85.40
2022-12-03T18:35:09.974Z,84.60
2022-12-03T18:37:37.874Z,85.00
2022-12-03T18:40:12.666Z,83.80
2022-12-03T18:42:40.259Z,84.40
2022-12-03T18:45:10.311Z,82.90
2022-12-03T18:47:37.871Z,84.10
2022-12-03T18:50:06.835Z,83.40
2022-12-03T18:52:33.888Z,83.70
2022-12-03T18:55:01.491Z,82.60
2022-12-03T18:57:28.779Z,83.30
2022-12-03T18:59:56.048Z,82.90
2022-12-03T19:03:01.903Z,83.20
2022-12-03T19:05:10.983Z,83.40
2022-12-03T19:07:38.171Z,84.00
2022-12-03T19:10:05.865Z,84.00
2022-12-03T19:12:33.443Z,84.20
2022-12-03T19:15:00.840Z,83.70
2022-12-03T19:17:28.001Z,84.30
2022-12-03T19:19:55.701Z,84.20
2022-12-03T19:22:23.700Z,85.50
2022-12-03T19:24:50.774Z,85.60
2022-12-03T19:27:18.136Z,85.30
2022-12-03T19:29:48.712Z,85.90
2022-12-03T19:32:20.118Z,85.30
2022-12-03T19:34:47.262Z,85.60
2022-12-03T19:37:14.640Z,85.00
2022-12-03T19:39:42.168Z,85.60
2022-12-03T19:42:09.394Z,85.20
2022-12-03T19:44:36.309Z,86.00
2022-12-03T19:47:03.477Z,86.50
2022-12-03T19:49:30.510Z,85.50
2022-12-03T19:51:57.469Z,86.40
2022-12-03T19:54:24.538Z,86.40
2022-12-03T19:56:51.699Z,87.10
2022-12-03T19:59:18.700Z,88.00
2022-12-03T20:01:46.473Z,86.60
2022-12-03T20:04:13.964Z,86.90
2022-12-03T20:06:40.903Z,86.80
2022-12-03T20:09:13.849Z,86.50
2022-12-03T20:11:42.670Z,87.40
2022-12-03T20:14:14.977Z,87.40
2022-12-03T20:16:42.463Z,86.60
2022-12-03T20:19:12.769Z,86.80
2022-12-03T20:21:40.617Z,87.10
2022-12-03T20:24:10.978Z,87.50
2022-12-03T20:26:41.575Z,85.90
2022-12-03T20:29:08.624Z,86.40
2022-12-03T20:31:35.932Z,86.50
2022-12-03T20:34:03.988Z,86.50
2022-12-03T20:36:31.900Z,87.70
2022-12-03T20:39:01.760Z,87.80
2022-12-03T20:41:29.843Z,87.60
2022-12-03T20:43:57.504Z,87.80
2022-12-03T20:46:29.278Z,88.10
2022-12-03T20:48:57.458Z,88.30
2022-12-03T20:51:27.616Z,88.50
2022-12-03T20:53:55.902Z,87.50
2022-12-03T20:56:31.486Z,87.70
2022-12-03T20:59:06.651Z,87.30
2022-12-03T21:01:38.308Z,86.90
2022-12-03T21:04:07.990Z,87.00
2022-12-03T21:06:37.106Z,88.10
2022-12-03T21:09:07.882Z,89.00
2022-12-03T21:11:36.074Z,87.30
2022-12-03T21:14:06.677Z,87.80
2022-12-03T21:17:07.829Z,87.40
2022-12-03T21:19:25.002Z,87.70
2022-12-03T21:21:52.177Z,88.70
2022-12-03T21:24:19.195Z,88.80
2022-12-03T21:26:46.200Z,87.20
2022-12-03T21:29:13.083Z,86.90
2022-12-03T21:31:40.317Z,87.80
2022-12-03T21:34:08.813Z,87.70
2022-12-03T21:36:35.967Z,87.90
2022-12-03T21:39:03.228Z,87.60
2022-12-03T21:41:30.261Z,87.20
2022-12-03T21:43:57.467Z,86.50
2022-12-03T21:47:10.471Z,87.80
2022-12-03T21:49:13.605Z,87.20
2022-12-03T21:51:40.765Z,87.80
2022-12-03T21:54:07.657Z,86.90
2022-12-03T21:56:34.873Z,87.80
2022-12-03T21:59:01.992Z,87.30
2022-12-03T22:01:29.106Z,86.50
2022-12-03T22:03:56.319Z,87.20
2022-12-03T22:06:23.573Z,86.60
2022-12-03T22:08:50.621Z,87.20
2022-12-03T22:11:22.988Z,86.70
2022-12-03T22:13:50.389Z,87.70
2022-12-03T22:16:20.082Z,87.90
2022-12-03T22:18:47.862Z,87.80
2022-12-03T22:21:18.749Z,88.90
2022-12-03T22:23:46.197Z,89.10
2022-12-03T22:26:15.653Z,88.00
2022-12-03T22:28:44.165Z,87.70
2022-12-03T22:31:12.260Z,89.60
2022-12-03T22:33:40.353Z,89.60
2022-12-03T22:36:19.695Z,90.30
2022-12-03T22:38:47.555Z,89.90
2022-12-03T22:41:14.781Z,90.40
2022-12-03T22:43:41.974Z,90.40
2022-12-03T22:46:13.045Z,90.80
2022-12-03T22:48:42.823Z,91.10
2022-12-03T22:51:16.338Z,90.90
2022-12-03T22:53:43.786Z,91.20
2022-12-03T22:56:11.060Z,91.40
2022-12-03T22:58:40.186Z,92.10
2022-12-03T23:01:08.054Z,92.20
2022-12-03T23:03:35.975Z,92.30
2022-12-03T23:06:10.406Z,92.40
2022-12-03T23:08:37.848Z,92.70
2022-12-03T23:11:05.157Z,93.60
2022-12-03T23:13:32.410Z,93.70
2022-12-03T23:16:00.673Z,94.30
2022-12-03T23:18:27.850Z,94.30
2022-12-03T23:20:56.968Z,94.30
2022-12-03T23:23:27.745Z,94.40
2022-12-03T23:26:13.371Z,95.00
2022-12-03T23:28:42.178Z,95.20
2022-12-03T23:31:30.816Z,95.50
2022-12-03T23:33:59.390Z,96.00
2022-12-03T23:36:30.048Z,95.90
2022-12-03T23:38:58.462Z,95.40
2022-12-03T23:41:28.934Z,95.60
2022-12-03T23:43:56.440Z,95.70
2022-12-03T23:46:29.386Z,95.50
2022-12-03T23:48:58.671Z,95.90
2022-12-03T23:51:26.624Z,95.60
2022-12-03T23:53:55.907Z,95.80
2022-12-03T23:56:29.368Z,96.10
2022-12-03T23:58:57.428Z,96.20
